sensor_id;sensor_type;location;lat;lon;timestamp;P1;durP1;ratioP1;P2;durP2;ratioP2
18592;SDS011;9426;54.118;17.948;2024-03-08T00:04:47;42.73;;;17.10;;
18592;SDS011;9426;54.118;17.948;2024-03-08T00:10:11;40.20;;;17.33;;
18592;SDS011;9426;54.118;17.948;2024-03-08T00:15:35;40.33;;;17.00;;
18592;SDS011;9426;54.118;17.948;2024-03-08T00:20:59;46.13;;;18.57;;
18592;SDS011;9426;54.118;17.948;2024-03-08T00:26:23;42.60;;;18.27;;
18592;SDS011;9426;54.118;17.948;2024-03-08T00:31:46;47.83;;;17.63;;
18592;SDS011;9426;54.118;17.948;2024-03-08T00:37:11;44.23;;;18.53;;
18592;SDS011;9426;54.118;17.948;2024-03-08T00:42:34;45.07;;;19.30;;
18592;SDS011;9426;54.118;17.948;2024-03-08T00:47:59;39.00;;;17.90;;
18592;SDS011;9426;54.118;17.948;2024-03-08T00:53:24;42.17;;;17.10;;
18592;SDS011;9426;54.118;17.948;2024-03-08T00:58:47;42.30;;;16.97;;
18592;SDS011;9426;54.118;17.948;2024-03-08T01:04:10;44.07;;;16.83;;
18592;SDS011;9426;54.118;17.948;2024-03-08T01:09:35;40.10;;;17.90;;
18592;SDS011;9426;54.118;17.948;2024-03-08T01:14:58;46.07;;;17.73;;
18592;SDS011;9426;54.118;17.948;2024-03-08T01:20:22;45.53;;;18.53;;
18592;SDS011;9426;54.118;17.948;2024-03-08T01:25:46;51.47;;;19.47;;
18592;SDS011;9426;54.118;17.948;2024-03-08T01:31:10;45.93;;;19.10;;
18592;SDS011;9426;54.118;17.948;2024-03-08T01:36:33;48.57;;;19.27;;
18592;SDS011;9426;54.118;17.948;2024-03-08T01:42:00;50.03;;;19.93;;
18592;SDS011;9426;54.118;17.948;2024-03-08T01:47:23;62.07;;;22.53;;
18592;SDS011;9426;54.118;17.948;2024-03-08T01:52:46;57.03;;;23.50;;
18592;SDS011;9426;54.118;17.948;2024-03-08T01:58:11;56.03;;;22.60;;
18592;SDS011;9426;54.118;17.948;2024-03-08T02:03:36;57.87;;;24.30;;
18592;SDS011;9426;54.118;17.948;2024-03-08T02:09:00;61.97;;;24.70;;
18592;SDS011;9426;54.118;17.948;2024-03-08T02:14:28;67.37;;;24.00;;
18592;SDS011;9426;54.118;17.948;2024-03-08T02:19:52;54.73;;;22.10;;
18592;SDS011;9426;54.118;17.948;2024-03-08T02:25:18;57.17;;;22.57;;
18592;SDS011;9426;54.118;17.948;2024-03-08T02:30:42;59.83;;;23.93;;
18592;SDS011;9426;54.118;17.948;2024-03-08T02:36:05;55.07;;;21.93;;
18592;SDS011;9426;54.118;17.948;2024-03-08T02:41:30;57.67;;;21.83;;
18592;SDS011;9426;54.118;17.948;2024-03-08T02:46:54;52.30;;;21.37;;
18592;SDS011;9426;54.118;17.948;2024-03-08T02:52:17;54.57;;;20.97;;
18592;SDS011;9426;54.118;17.948;2024-03-08T02:57:43;57.63;;;21.97;;
18592;SDS011;9426;54.118;17.948;2024-03-08T03:03:08;61.03;;;21.67;;
18592;SDS011;9426;54.118;17.948;2024-03-08T03:08:32;56.10;;;22.30;;
18592;SDS011;9426;54.118;17.948;2024-03-08T03:13:56;49.37;;;20.23;;
18592;SDS011;9426;54.118;17.948;2024-03-08T03:19:20;53.00;;;21.07;;
18592;SDS011;9426;54.118;17.948;2024-03-08T03:24:43;58.47;;;20.80;;
18592;SDS011;9426;54.118;17.948;2024-03-08T03:30:09;59.43;;;21.53;;
18592;SDS011;9426;54.118;17.948;2024-03-08T03:35:43;46.90;;;18.80;;
18592;SDS011;9426;54.118;17.948;2024-03-08T03:41:07;53.60;;;19.50;;
18592;SDS011;9426;54.118;17.948;2024-03-08T03:46:33;49.43;;;18.77;;
18592;SDS011;9426;54.118;17.948;2024-03-08T03:51:56;50.40;;;19.73;;
18592;SDS011;9426;54.118;17.948;2024-03-08T03:57:20;52.83;;;19.20;;
18592;SDS011;9426;54.118;17.948;2024-03-08T04:02:45;56.83;;;19.70;;
18592;SDS011;9426;54.118;17.948;2024-03-08T04:08:09;54.30;;;19.83;;
18592;SDS011;9426;54.118;17.948;2024-03-08T04:13:32;48.07;;;18.60;;
18592;SDS011;9426;54.118;17.948;2024-03-08T04:18:59;57.33;;;21.30;;
18592;SDS011;9426;54.118;17.948;2024-03-08T04:24:25;54.40;;;19.83;;
18592;SDS011;9426;54.118;17.948;2024-03-08T04:29:48;54.50;;;19.77;;
18592;SDS011;9426;54.118;17.948;2024-03-08T04:35:13;57.47;;;20.77;;
18592;SDS011;9426;54.118;17.948;2024-03-08T04:40:37;56.80;;;19.60;;
18592;SDS011;9426;54.118;17.948;2024-03-08T04:46:00;56.17;;;21.43;;
18592;SDS011;9426;54.118;17.948;2024-03-08T04:51:26;58.07;;;21.10;;
18592;SDS011;9426;54.118;17.948;2024-03-08T04:56:49;53.67;;;19.83;;
18592;SDS011;9426;54.118;17.948;2024-03-08T05:02:13;57.70;;;19.10;;
18592;SDS011;9426;54.118;17.948;2024-03-08T05:07:38;54.47;;;19.57;;
18592;SDS011;9426;54.118;17.948;2024-03-08T05:13:01;54.77;;;19.50;;
18592;SDS011;9426;54.118;17.948;2024-03-08T05:18:24;52.67;;;18.73;;
18592;SDS011;9426;54.118;17.948;2024-03-08T05:23:51;55.93;;;19.20;;
18592;SDS011;9426;54.118;17.948;2024-03-08T05:29:15;66.03;;;21.90;;
18592;SDS011;9426;54.118;17.948;2024-03-08T05:34:38;50.93;;;18.37;;
18592;SDS011;9426;54.118;17.948;2024-03-08T05:40:03;54.20;;;19.47;;
18592;SDS011;9426;54.118;17.948;2024-03-08T05:45:31;53.53;;;18.83;;
18592;SDS011;9426;54.118;17.948;2024-03-08T05:50:55;54.63;;;18.63;;
18592;SDS011;9426;54.118;17.948;2024-03-08T05:56:20;50.33;;;18.20;;
18592;SDS011;9426;54.118;17.948;2024-03-08T06:01:44;50.23;;;18.40;;
18592;SDS011;9426;54.118;17.948;2024-03-08T06:07:08;49.77;;;17.87;;
18592;SDS011;9426;54.118;17.948;2024-03-08T06:12:35;55.13;;;17.00;;
18592;SDS011;9426;54.118;17.948;2024-03-08T06:18:01;45.27;;;17.63;;
18592;SDS011;9426;54.118;17.948;2024-03-08T06:23:27;50.17;;;18.90;;
18592;SDS011;9426;54.118;17.948;2024-03-08T06:28:51;47.80;;;16.77;;
18592;SDS011;9426;54.118;17.948;2024-03-08T06:34:17;49.90;;;17.50;;
18592;SDS011;9426;54.118;17.948;2024-03-08T06:39:41;46.73;;;18.97;;
18592;SDS011;9426;54.118;17.948;2024-03-08T06:45:06;48.13;;;17.20;;
18592;SDS011;9426;54.118;17.948;2024-03-08T06:50:31;42.47;;;17.60;;
18592;SDS011;9426;54.118;17.948;2024-03-08T06:55:55;44.87;;;17.77;;
18592;SDS011;9426;54.118;17.948;2024-03-08T07:01:20;43.30;;;18.07;;
18592;SDS011;9426;54.118;17.948;2024-03-08T07:06:44;75.43;;;22.73;;
18592;SDS011;9426;54.118;17.948;2024-03-08T07:12:08;63.27;;;21.67;;
18592;SDS011;9426;54.118;17.948;2024-03-08T07:17:33;54.73;;;20.93;;
18592;SDS011;9426;54.118;17.948;2024-03-08T07:22:59;51.13;;;18.73;;
18592;SDS011;9426;54.118;17.948;2024-03-08T07:28:23;50.03;;;19.27;;
18592;SDS011;9426;54.118;17.948;2024-03-08T07:33:48;54.13;;;19.63;;
18592;SDS011;9426;54.118;17.948;2024-03-08T07:39:12;73.93;;;25.73;;
18592;SDS011;9426;54.118;17.948;2024-03-08T07:44:37;48.10;;;18.80;;
18592;SDS011;9426;54.118;17.948;2024-03-08T07:50:05;57.20;;;21.50;;
18592;SDS011;9426;54.118;17.948;2024-03-08T07:55:29;66.67;;;23.33;;
18592;SDS011;9426;54.118;17.948;2024-03-08T08:00:54;82.80;;;27.60;;
18592;SDS011;9426;54.118;17.948;2024-03-08T08:06:18;59.93;;;23.13;;
18592;SDS011;9426;54.118;17.948;2024-03-08T08:11:42;77.17;;;26.73;;
18592;SDS011;9426;54.118;17.948;2024-03-08T08:17:06;75.43;;;29.20;;
18592;SDS011;9426;54.118;17.948;2024-03-08T08:22:31;74.57;;;28.37;;
18592;SDS011;9426;54.118;17.948;2024-03-08T08:27:57;69.53;;;25.77;;
18592;SDS011;9426;54.118;17.948;2024-03-08T08:33:20;69.43;;;26.20;;
18592;SDS011;9426;54.118;17.948;2024-03-08T08:38:44;56.97;;;23.83;;
18592;SDS011;9426;54.118;17.948;2024-03-08T08:44:10;74.40;;;26.77;;
18592;SDS011;9426;54.118;17.948;2024-03-08T08:49:34;64.30;;;24.90;;
18592;SDS011;9426;54.118;17.948;2024-03-08T08:55:00;63.47;;;24.20;;
18592;SDS011;9426;54.118;17.948;2024-03-08T09:00:25;52.33;;;20.73;;
18592;SDS011;9426;54.118;17.948;2024-03-08T09:05:49;46.00;;;20.03;;
18592;SDS011;9426;54.118;17.948;2024-03-08T09:11:15;53.07;;;20.47;;
18592;SDS011;9426;54.118;17.948;2024-03-08T09:16:38;51.37;;;21.00;;
18592;SDS011;9426;54.118;17.948;2024-03-08T09:22:02;55.97;;;21.57;;
18592;SDS011;9426;54.118;17.948;2024-03-08T09:27:30;67.00;;;25.57;;
18592;SDS011;9426;54.118;17.948;2024-03-08T09:32:53;74.10;;;27.90;;
18592;SDS011;9426;54.118;17.948;2024-03-08T09:38:18;72.67;;;28.27;;
18592;SDS011;9426;54.118;17.948;2024-03-08T09:43:43;75.87;;;27.47;;
18592;SDS011;9426;54.118;17.948;2024-03-08T09:49:08;58.53;;;24.63;;
18592;SDS011;9426;54.118;17.948;2024-03-08T09:54:34;62.67;;;26.60;;
18592;SDS011;9426;54.118;17.948;2024-03-08T09:59:58;55.93;;;22.97;;
18592;SDS011;9426;54.118;17.948;2024-03-08T10:05:24;54.87;;;20.47;;
18592;SDS011;9426;54.118;17.948;2024-03-08T10:10:47;44.77;;;19.23;;
18592;SDS011;9426;54.118;17.948;2024-03-08T10:16:14;39.40;;;16.33;;
18592;SDS011;9426;54.118;17.948;2024-03-08T10:21:47;32.53;;;13.80;;
18592;SDS011;9426;54.118;17.948;2024-03-08T10:27:11;31.17;;;14.80;;
18592;SDS011;9426;54.118;17.948;2024-03-08T10:32:37;25.60;;;12.03;;
18592;SDS011;9426;54.118;17.948;2024-03-08T10:38:02;14.67;;;7.53;;
18592;SDS011;9426;54.118;17.948;2024-03-08T10:43:31;19.83;;;7.43;;
18592;SDS011;9426;54.118;17.948;2024-03-08T10:49:04;18.87;;;7.70;;
18592;SDS011;9426;54.118;17.948;2024-03-08T10:54:31;15.60;;;7.57;;
18592;SDS011;9426;54.118;17.948;2024-03-08T10:59:56;14.50;;;6.70;;
18592;SDS011;9426;54.118;17.948;2024-03-08T11:05:32;15.30;;;6.87;;
18592;SDS011;9426;54.118;17.948;2024-03-08T11:11:01;15.37;;;6.07;;
18592;SDS011;9426;54.118;17.948;2024-03-08T11:16:39;14.47;;;6.83;;
18592;SDS011;9426;54.118;17.948;2024-03-08T11:22:13;13.07;;;6.30;;
18592;SDS011;9426;54.118;17.948;2024-03-08T11:27:51;18.10;;;7.27;;
18592;SDS011;9426;54.118;17.948;2024-03-08T11:33:28;16.23;;;7.30;;
18592;SDS011;9426;54.118;17.948;2024-03-08T11:38:54;16.50;;;7.60;;
18592;SDS011;9426;54.118;17.948;2024-03-08T11:44:20;16.37;;;7.43;;
18592;SDS011;9426;54.118;17.948;2024-03-08T11:49:43;12.60;;;7.07;;
18592;SDS011;9426;54.118;17.948;2024-03-08T11:55:10;15.30;;;7.30;;
18592;SDS011;9426;54.118;17.948;2024-03-08T12:00:34;14.50;;;7.67;;
18592;SDS011;9426;54.118;17.948;2024-03-08T12:05:59;19.17;;;8.00;;
18592;SDS011;9426;54.118;17.948;2024-03-08T12:11:24;11.47;;;6.13;;
18592;SDS011;9426;54.118;17.948;2024-03-08T12:16:48;13.70;;;7.47;;
18592;SDS011;9426;54.118;17.948;2024-03-08T12:22:14;12.93;;;7.10;;
18592;SDS011;9426;54.118;17.948;2024-03-08T12:27:39;13.13;;;6.67;;
18592;SDS011;9426;54.118;17.948;2024-03-08T12:33:04;13.67;;;6.20;;
18592;SDS011;9426;54.118;17.948;2024-03-08T12:38:31;12.63;;;6.77;;
18592;SDS011;9426;54.118;17.948;2024-03-08T12:43:57;14.20;;;8.03;;
18592;SDS011;9426;54.118;17.948;2024-03-08T12:49:22;19.57;;;8.43;;
18592;SDS011;9426;54.118;17.948;2024-03-08T12:54:46;15.43;;;8.87;;
18592;SDS011;9426;54.118;17.948;2024-03-08T13:00:13;16.83;;;8.93;;
18592;SDS011;9426;54.118;17.948;2024-03-08T13:05:40;20.93;;;8.77;;
18592;SDS011;9426;54.118;17.948;2024-03-08T13:11:03;16.03;;;9.37;;
18592;SDS011;9426;54.118;17.948;2024-03-08T13:16:29;19.73;;;10.17;;
18592;SDS011;9426;54.118;17.948;2024-03-08T13:21:53;19.60;;;10.33;;
18592;SDS011;9426;54.118;17.948;2024-03-08T13:27:18;21.43;;;10.63;;
18592;SDS011;9426;54.118;17.948;2024-03-08T13:32:43;25.57;;;10.93;;
18592;SDS011;9426;54.118;17.948;2024-03-08T13:38:07;23.60;;;11.50;;
18592;SDS011;9426;54.118;17.948;2024-03-08T13:43:34;29.13;;;11.73;;
18592;SDS011;9426;54.118;17.948;2024-03-08T13:49:02;21.70;;;9.87;;
18592;SDS011;9426;54.118;17.948;2024-03-08T13:54:29;19.83;;;9.90;;
18592;SDS011;9426;54.118;17.948;2024-03-08T13:59:53;19.53;;;10.03;;
18592;SDS011;9426;54.118;17.948;2024-03-08T14:05:18;43.37;;;21.70;;
18592;SDS011;9426;54.118;17.948;2024-03-08T14:10:42;24.50;;;12.30;;
18592;SDS011;9426;54.118;17.948;2024-03-08T14:16:08;19.13;;;9.47;;
18592;SDS011;9426;54.118;17.948;2024-03-08T14:21:33;23.50;;;10.53;;
18592;SDS011;9426;54.118;17.948;2024-03-08T14:26:58;19.13;;;9.43;;
18592;SDS011;9426;54.118;17.948;2024-03-08T14:32:21;17.97;;;9.70;;
18592;SDS011;9426;54.118;17.948;2024-03-08T14:37:46;32.23;;;16.07;;
18592;SDS011;9426;54.118;17.948;2024-03-08T14:43:11;23.23;;;10.50;;
18592;SDS011;9426;54.118;17.948;2024-03-08T14:48:36;29.87;;;13.80;;
18592;SDS011;9426;54.118;17.948;2024-03-08T14:54:01;20.23;;;9.80;;
18592;SDS011;9426;54.118;17.948;2024-03-08T14:59:27;22.87;;;10.77;;
18592;SDS011;9426;54.118;17.948;2024-03-08T15:04:52;32.20;;;14.50;;
18592;SDS011;9426;54.118;17.948;2024-03-08T15:10:21;24.43;;;10.77;;
18592;SDS011;9426;54.118;17.948;2024-03-08T15:15:47;27.30;;;11.33;;
18592;SDS011;9426;54.118;17.948;2024-03-08T15:21:15;26.43;;;11.87;;
18592;SDS011;9426;54.118;17.948;2024-03-08T15:26:43;23.90;;;10.57;;
18592;SDS011;9426;54.118;17.948;2024-03-08T15:32:08;24.27;;;10.37;;
18592;SDS011;9426;54.118;17.948;2024-03-08T15:37:36;19.07;;;9.43;;
18592;SDS011;9426;54.118;17.948;2024-03-08T15:43:00;21.50;;;9.67;;
18592;SDS011;9426;54.118;17.948;2024-03-08T15:48:24;18.37;;;9.17;;
18592;SDS011;9426;54.118;17.948;2024-03-08T15:53:48;22.17;;;10.33;;
18592;SDS011;9426;54.118;17.948;2024-03-08T15:59:18;20.93;;;10.30;;
18592;SDS011;9426;54.118;17.948;2024-03-08T16:04:42;22.10;;;10.27;;
18592;SDS011;9426;54.118;17.948;2024-03-08T16:10:07;24.67;;;11.33;;
18592;SDS011;9426;54.118;17.948;2024-03-08T16:15:34;25.77;;;10.17;;
18592;SDS011;9426;54.118;17.948;2024-03-08T16:21:00;31.03;;;13.70;;
18592;SDS011;9426;54.118;17.948;2024-03-08T16:26:25;32.47;;;14.60;;
18592;SDS011;9426;54.118;17.948;2024-03-08T16:31:53;29.50;;;13.23;;
18592;SDS011;9426;54.118;17.948;2024-03-08T16:37:16;25.37;;;12.13;;
18592;SDS011;9426;54.118;17.948;2024-03-08T16:42:42;27.83;;;10.37;;
18592;SDS011;9426;54.118;17.948;2024-03-08T16:48:08;25.77;;;9.57;;
18592;SDS011;9426;54.118;17.948;2024-03-08T16:53:32;24.50;;;10.83;;
18592;SDS011;9426;54.118;17.948;2024-03-08T16:58:56;39.47;;;17.93;;
18592;SDS011;9426;54.118;17.948;2024-03-08T17:04:21;70.77;;;25.77;;
18592;SDS011;9426;54.118;17.948;2024-03-08T17:09:47;66.73;;;25.63;;
18592;SDS011;9426;54.118;17.948;2024-03-08T17:15:12;68.40;;;28.63;;
18592;SDS011;9426;54.118;17.948;2024-03-08T17:20:37;81.97;;;34.17;;
18592;SDS011;9426;54.118;17.948;2024-03-08T17:26:04;87.60;;;32.97;;
18592;SDS011;9426;54.118;17.948;2024-03-08T17:31:29;79.57;;;30.80;;
18592;SDS011;9426;54.118;17.948;2024-03-08T17:36:54;81.30;;;31.00;;
18592;SDS011;9426;54.118;17.948;2024-03-08T17:42:19;60.13;;;26.73;;
18592;SDS011;9426;54.118;17.948;2024-03-08T17:47:44;57.87;;;24.47;;
18592;SDS011;9426;54.118;17.948;2024-03-08T17:53:10;76.87;;;29.77;;
18592;SDS011;9426;54.118;17.948;2024-03-08T17:58:35;82.57;;;30.03;;
18592;SDS011;9426;54.118;17.948;2024-03-08T18:03:59;79.17;;;30.83;;
18592;SDS011;9426;54.118;17.948;2024-03-08T18:09:24;84.83;;;31.87;;
18592;SDS011;9426;54.118;17.948;2024-03-08T18:14:48;78.00;;;29.63;;
18592;SDS011;9426;54.118;17.948;2024-03-08T18:20:11;80.13;;;30.77;;
18592;SDS011;9426;54.118;17.948;2024-03-08T18:25:37;83.27;;;31.53;;
18592;SDS011;9426;54.118;17.948;2024-03-08T18:31:01;77.27;;;30.90;;
18592;SDS011;9426;54.118;17.948;2024-03-08T18:36:25;76.43;;;33.40;;
18592;SDS011;9426;54.118;17.948;2024-03-08T18:41:53;104.20;;;36.07;;
18592;SDS011;9426;54.118;17.948;2024-03-08T18:47:17;125.50;;;41.57;;
18592;SDS011;9426;54.118;17.948;2024-03-08T18:59:22;108.57;;;40.73;;
18592;SDS011;9426;54.118;17.948;2024-03-08T19:04:49;100.90;;;41.53;;
18592;SDS011;9426;54.118;17.948;2024-03-08T19:11:39;102.60;;;40.80;;
18592;SDS011;9426;54.118;17.948;2024-03-08T20:37:25;115.97;;;44.67;;
18592;SDS011;9426;54.118;17.948;2024-03-08T21:02:55;90.03;;;36.30;;
18592;SDS011;9426;54.118;17.948;2024-03-08T21:08:33;112.33;;;43.27;;
18592;SDS011;9426;54.118;17.948;2024-03-08T21:14:00;116.90;;;43.90;;
18592;SDS011;9426;54.118;17.948;2024-03-08T21:19:26;77.73;;;34.47;;
18592;SDS011;9426;54.118;17.948;2024-03-08T21:32:25;84.77;;;34.97;;
18592;SDS011;9426;54.118;17.948;2024-03-08T21:37:53;102.87;;;39.87;;
18592;SDS011;9426;54.118;17.948;2024-03-08T21:43:17;94.10;;;38.53;;
18592;SDS011;9426;54.118;17.948;2024-03-08T21:48:41;77.90;;;33.73;;
18592;SDS011;9426;54.118;17.948;2024-03-08T21:54:10;67.10;;;30.07;;
18592;SDS011;9426;54.118;17.948;2024-03-08T21:59:35;81.87;;;34.27;;
18592;SDS011;9426;54.118;17.948;2024-03-08T22:05:02;69.63;;;31.97;;
18592;SDS011;9426;54.118;17.948;2024-03-08T22:10:32;57.37;;;26.63;;
18592;SDS011;9426;54.118;17.948;2024-03-08T22:15:59;68.87;;;30.87;;
18592;SDS011;9426;54.118;17.948;2024-03-08T22:21:27;58.60;;;27.57;;
18592;SDS011;9426;54.118;17.948;2024-03-08T22:26:56;58.80;;;27.10;;
18592;SDS011;9426;54.118;17.948;2024-03-08T22:32:24;60.03;;;28.87;;
18592;SDS011;9426;54.118;17.948;2024-03-08T22:37:53;68.70;;;30.80;;
18592;SDS011;9426;54.118;17.948;2024-03-08T22:43:25;59.10;;;28.13;;
18592;SDS011;9426;54.118;17.948;2024-03-08T22:48:56;56.40;;;27.37;;
18592;SDS011;9426;54.118;17.948;2024-03-08T22:54:24;56.40;;;27.90;;
18592;SDS011;9426;54.118;17.948;2024-03-08T22:59:53;66.33;;;30.83;;
18592;SDS011;9426;54.118;17.948;2024-03-08T23:05:25;66.70;;;29.53;;
18592;SDS011;9426;54.118;17.948;2024-03-08T23:10:54;61.27;;;28.63;;
18592;SDS011;9426;54.118;17.948;2024-03-08T23:16:25;71.03;;;32.23;;
18592;SDS011;9426;54.118;17.948;2024-03-08T23:21:54;71.40;;;31.47;;
18592;SDS011;9426;54.118;17.948;2024-03-08T23:27:23;56.27;;;28.20;;
18592;SDS011;9426;54.118;17.948;2024-03-08T23:32:52;65.30;;;28.87;;
18592;SDS011;9426;54.118;17.948;2024-03-08T23:38:21;69.77;;;31.80;;
18592;SDS011;9426;54.118;17.948;2024-03-08T23:43:49;69.03;;;30.37;;
18592;SDS011;9426;54.118;17.948;2024-03-08T23:49:19;71.83;;;32.03;;
18592;SDS011;9426;54.118;17.948;2024-03-08T23:54:48;76.73;;;33.47;;
